createdAt,value
2018-04-23T00:01:17.210Z,60.60
2018-04-23T00:03:44.712Z,60.00
2018-04-23T00:06:12.243Z,59.90
2018-04-23T00:08:39.761Z,59.90
2018-04-23T00:11:07.317Z,59.40
2018-04-23T00:13:34.847Z,59.60
2018-04-23T00:16:02.369Z,60.60
2018-04-23T00:20:52.171Z,61.90
2018-04-23T00:23:19.699Z,62.40
2018-04-23T00:25:47.199Z,62.70
2018-04-23T00:28:15.483Z,63.30
2018-04-23T00:30:43.793Z,62.70
2018-04-23T00:33:11.304Z,62.50
2018-04-23T00:35:38.835Z,61.80
2018-04-23T00:38:06.340Z,62.30
2018-04-23T00:40:35.382Z,62.80
2018-04-23T00:43:02.890Z,62.80
2018-04-23T00:45:30.416Z,63.20
2018-04-23T00:47:57.942Z,63.00
2018-04-23T00:50:25.458Z,62.90
2018-04-23T00:53:04.863Z,61.70
2018-04-23T00:55:33.137Z,61.20
2018-04-23T00:58:01.436Z,61.90
2018-04-23T01:00:28.953Z,61.80
2018-04-23T01:02:56.499Z,61.20
2018-04-23T01:05:24.024Z,59.90
2018-04-23T01:07:51.537Z,60.00
2018-04-23T01:10:19.051Z,59.60
2018-04-23T01:12:46.584Z,59.60
2018-04-23T01:15:14.863Z,60.10
2018-04-23T01:17:43.149Z,60.20
2018-04-23T01:20:10.643Z,60.20
2018-04-23T01:22:38.155Z,60.60
2018-04-23T01:25:05.651Z,60.10
2018-04-23T01:27:33.921Z,60.30
2018-04-23T01:30:02.212Z,60.80
2018-04-23T01:32:30.495Z,59.80
2018-04-23T01:34:58.799Z,60.00
2018-04-23T01:37:26.296Z,60.00
2018-04-23T01:39:54.619Z,60.00
2018-04-23T01:42:22.896Z,60.50
2018-04-23T01:44:51.170Z,60.80
2018-04-23T01:47:19.454Z,60.30
2018-04-23T01:49:47.764Z,61.40
2018-04-23T01:52:15.286Z,61.40
2018-04-23T01:54:42.794Z,61.60
2018-04-23T01:57:11.180Z,62.10
2018-04-23T01:59:38.678Z,63.10
2018-04-23T02:02:06.206Z,63.50
2018-04-23T02:04:33.708Z,63.70
2018-04-23T02:07:01.224Z,63.80
2018-04-23T02:09:28.752Z,64.00
2018-04-23T02:11:57.074Z,63.30
2018-04-23T02:14:24.591Z,62.70
2018-04-23T02:16:52.103Z,62.50
2018-04-23T02:19:19.642Z,62.00
2018-04-23T02:21:47.931Z,61.70
2018-04-23T02:24:16.208Z,61.50
2018-04-23T02:26:44.503Z,61.50
2018-04-23T02:29:12.007Z,61.40
2018-04-23T02:31:39.543Z,61.10
2018-04-23T02:34:07.056Z,60.50
2018-04-23T02:36:34.595Z,60.80
2018-04-23T02:39:02.099Z,60.90
2018-04-23T02:41:30.369Z,60.80
2018-04-23T02:43:57.898Z,60.80
2018-04-23T02:46:25.408Z,61.80
2018-04-23T02:48:53.706Z,61.00
2018-04-23T02:51:21.211Z,61.00
2018-04-23T02:53:48.733Z,60.70
2018-04-23T02:56:16.254Z,60.80
2018-04-23T02:58:43.788Z,60.90
2018-04-23T03:01:11.306Z,60.70
2018-04-23T03:03:39.584Z,60.20
2018-04-23T03:06:07.114Z,60.20
2018-04-23T03:08:34.608Z,59.80
2018-04-23T03:11:02.129Z,59.70
2018-04-23T03:13:29.651Z,59.60
2018-04-23T03:15:57.939Z,59.30
2018-04-23T03:18:25.460Z,59.30
2018-04-23T03:20:52.975Z,59.00
2018-04-23T03:23:20.571Z,59.50
2018-04-23T03:25:48.091Z,59.60
2018-04-23T03:28:16.383Z,59.10
2018-04-23T03:30:43.907Z,59.00
2018-04-23T03:33:11.438Z,59.60
2018-04-23T03:35:38.959Z,59.70
2018-04-23T03:38:07.366Z,59.50
2018-04-23T03:40:34.880Z,59.50
2018-04-23T03:43:02.389Z,59.40
2018-04-23T03:45:29.909Z,59.80
2018-04-23T03:47:57.413Z,59.80
2018-04-23T03:50:24.985Z,59.60
2018-04-23T03:52:53.272Z,59.70
2018-04-23T03:55:20.804Z,59.70
2018-04-23T03:57:49.089Z,60.00
2018-04-23T04:00:17.404Z,60.00
2018-04-23T04:02:44.918Z,59.80
2018-04-23T04:05:12.416Z,60.00
2018-04-23T04:07:40.020Z,60.40
2018-04-23T04:10:07.544Z,59.80
2018-04-23T04:12:47.038Z,59.80
2018-04-23T04:15:26.429Z,59.80
2018-04-23T04:21:05.100Z,59.20
2018-04-23T04:23:32.650Z,59.20
2018-04-23T04:26:00.169Z,58.70
2018-04-23T04:28:27.688Z,58.80
2018-04-23T04:30:55.216Z,58.90
2018-04-23T04:33:22.723Z,58.80
2018-04-23T04:35:51.037Z,58.20
2018-04-23T04:38:18.568Z,58.20
2018-04-23T04:40:46.875Z,58.50
2018-04-23T04:43:14.396Z,58.40
2018-04-23T04:45:41.917Z,58.30
2018-04-23T04:48:09.450Z,58.40
2018-04-23T04:50:37.715Z,58.30
2018-04-23T04:53:05.358Z,58.30
2018-04-23T04:55:32.870Z,58.70
2018-04-23T04:58:01.144Z,58.20
2018-04-23T05:00:29.429Z,58.30
2018-04-23T05:02:57.736Z,57.90
2018-04-23T05:05:25.255Z,57.90
2018-04-23T05:07:52.780Z,58.20
2018-04-23T05:10:20.312Z,58.70
2018-04-23T05:12:47.838Z,58.80
2018-04-23T05:15:15.377Z,59.00
2018-04-23T05:17:42.911Z,58.40
2018-04-23T05:20:10.432Z,58.50
2018-04-23T05:22:37.968Z,58.50
2018-04-23T05:25:05.491Z,58.70
2018-04-23T05:27:33.031Z,59.40
2018-04-23T05:30:01.414Z,57.90
2018-04-23T05:32:28.881Z,57.80
2018-04-23T05:34:56.444Z,57.80
2018-04-23T05:37:23.972Z,58.40
2018-04-23T05:39:51.483Z,57.70
2018-04-23T05:42:19.765Z,57.70
2018-04-23T05:44:48.065Z,58.00
2018-04-23T05:47:15.595Z,57.30
2018-04-23T05:49:43.913Z,58.20
2018-04-23T05:52:11.438Z,57.50
2018-04-23T05:54:38.957Z,57.60
2018-04-23T05:57:06.467Z,57.60
2018-04-23T05:59:33.997Z,57.60
2018-04-23T06:02:01.532Z,57.40
2018-04-23T06:04:29.067Z,56.80
2018-04-23T06:06:57.392Z,57.80
2018-04-23T06:09:24.907Z,57.80
2018-04-23T06:11:53.195Z,57.90
2018-04-23T06:14:21.524Z,57.40
2018-04-23T06:16:49.017Z,57.40
2018-04-23T06:19:16.525Z,56.50
2018-04-23T06:21:44.048Z,56.00
2018-04-23T06:24:11.553Z,55.90
2018-04-23T06:26:39.070Z,55.80
2018-04-23T06:29:06.577Z,56.40
2018-04-23T06:31:34.089Z,55.90
2018-04-23T06:34:01.606Z,55.90
2018-04-23T06:36:29.123Z,55.80
2018-04-23T06:38:58.151Z,55.60
2018-04-23T06:41:26.449Z,55.00
2018-04-23T06:43:53.970Z,55.00
2018-04-23T06:46:21.512Z,55.40
2018-04-23T06:48:49.059Z,54.90
2018-04-23T06:51:16.677Z,55.00
2018-04-23T06:53:44.952Z,54.80
2018-04-23T06:56:17.891Z,54.80
2018-04-23T06:58:46.244Z,55.50
2018-04-23T07:01:14.547Z,54.90
2018-04-23T07:03:42.077Z,54.90
2018-04-23T07:06:10.382Z,54.00
2018-04-23T07:08:37.903Z,54.00
2018-04-23T07:11:05.444Z,54.70
2018-04-23T07:13:32.954Z,54.60
2018-04-23T07:16:01.236Z,54.00
2018-04-23T07:18:29.524Z,53.00
2018-04-23T07:20:57.041Z,53.00
2018-04-23T07:23:24.575Z,51.80
2018-04-23T07:25:52.075Z,53.40
2018-04-23T07:28:19.602Z,53.20
2018-04-23T07:30:47.155Z,52.90
2018-04-23T07:33:14.671Z,49.60
2018-04-23T07:35:42.190Z,47.80
2018-04-23T07:38:09.704Z,49.60
2018-04-23T07:40:37.244Z,50.90
2018-04-23T07:43:04.772Z,45.10
2018-04-23T07:45:32.324Z,47.30
2018-04-23T07:48:00.611Z,44.90
2018-04-23T07:50:28.881Z,45.90
2018-04-23T07:52:57.166Z,45.80
2018-04-23T07:55:25.451Z,46.30
2018-04-23T07:57:53.761Z,43.80
2018-04-23T08:00:21.273Z,43.80
2018-04-23T08:02:48.822Z,43.40
2018-04-23T08:05:16.338Z,45.50
2018-04-23T08:07:43.856Z,42.80
2018-04-23T08:10:11.415Z,42.30
2018-04-23T08:12:38.925Z,40.70
2018-04-23T08:15:06.445Z,42.00
2018-04-23T08:17:33.984Z,42.80
2018-04-23T08:20:01.501Z,42.60
2018-04-23T08:22:30.258Z,40.20
2018-04-23T08:24:57.767Z,40.10
2018-04-23T08:27:25.298Z,38.60
2018-04-23T08:29:52.811Z,40.40
2018-04-23T08:32:20.340Z,38.00
2018-04-23T08:34:48.648Z,41.20
2018-04-23T08:37:16.158Z,41.10
2018-04-23T08:39:43.695Z,41.90
2018-04-23T08:42:11.203Z,38.10
2018-04-23T08:44:38.721Z,39.00
2018-04-23T08:47:06.279Z,35.70
2018-04-23T08:49:33.791Z,35.70
2018-04-23T08:52:01.299Z,35.70
2018-04-23T08:54:28.829Z,36.00
2018-04-23T08:56:57.129Z,34.00
2018-04-23T08:59:24.637Z,34.00
2018-04-23T09:01:52.166Z,34.70
2018-04-23T09:04:19.672Z,36.00
2018-04-23T09:06:47.209Z,34.50
2018-04-23T09:09:14.721Z,34.60
2018-04-23T09:11:43.080Z,33.80
2018-04-23T09:14:10.549Z,33.80
2018-04-23T09:16:38.071Z,33.50
2018-04-23T09:19:05.593Z,32.20
2018-04-23T09:21:33.863Z,33.90
2018-04-23T09:24:01.385Z,33.90
2018-04-23T09:26:28.900Z,33.20
2018-04-23T09:28:56.432Z,33.20
2018-04-23T09:31:23.951Z,32.20
2018-04-23T09:33:51.456Z,32.20
2018-04-23T09:36:18.974Z,33.30
2018-04-23T09:38:47.253Z,30.20
2018-04-23T09:41:15.552Z,30.30
2018-04-23T09:43:43.047Z,30.40
2018-04-23T09:46:10.587Z,32.40
2018-04-23T09:48:38.100Z,30.30
2018-04-23T09:51:05.604Z,30.20
2018-04-23T09:53:33.131Z,30.40
2018-04-23T09:56:00.645Z,31.00
2018-04-23T09:58:28.180Z,31.20
2018-04-23T10:00:56.445Z,32.00
2018-04-23T10:03:25.561Z,31.20
2018-04-23T10:05:53.875Z,32.20
2018-04-23T10:08:21.380Z,32.20
2018-04-23T10:10:48.936Z,32.90
2018-04-23T10:13:16.443Z,33.10
2018-04-23T10:15:43.988Z,32.60
2018-04-23T10:18:12.259Z,32.70
2018-04-23T10:20:40.563Z,33.90
2018-04-23T10:23:08.070Z,33.20
2018-04-23T10:25:35.603Z,33.60
2018-04-23T10:28:03.135Z,31.70
2018-04-23T10:30:31.425Z,31.40
2018-04-23T10:32:59.740Z,31.40
2018-04-23T10:35:27.263Z,31.40
2018-04-23T10:37:55.555Z,32.60
2018-04-23T10:40:23.838Z,33.20
2018-04-23T10:42:52.115Z,31.00
2018-04-23T10:45:20.416Z,32.10
2018-04-23T10:47:47.927Z,32.10
2018-04-23T10:50:15.460Z,31.30
2018-04-23T10:52:43.024Z,31.40
2018-04-23T10:55:10.563Z,30.30
2018-04-23T10:57:38.071Z,30.90
2018-04-23T11:00:05.587Z,30.80
2018-04-23T11:02:33.875Z,31.70
2018-04-23T11:05:01.388Z,31.70
2018-04-23T11:07:28.921Z,32.10
2018-04-23T11:09:56.462Z,31.90
2018-04-23T11:12:24.009Z,32.50
2018-04-23T11:14:52.278Z,32.20
2018-04-23T11:17:20.557Z,31.00
2018-04-23T11:19:48.855Z,31.60
2018-04-23T11:22:17.139Z,31.90
2018-04-23T11:24:45.504Z,31.10
2018-04-23T11:27:12.991Z,31.10
2018-04-23T11:29:40.508Z,31.10
2018-04-23T11:32:08.047Z,30.00
2018-04-23T11:34:35.567Z,32.30
2018-04-23T11:37:03.865Z,31.60
2018-04-23T11:39:31.384Z,31.60
2018-04-23T11:41:59.007Z,30.70
2018-04-23T11:44:26.525Z,30.90
2018-04-23T11:46:54.043Z,32.20
2018-04-23T11:49:21.558Z,32.30
2018-04-23T11:51:49.869Z,32.10
2018-04-23T11:54:17.392Z,31.50
2018-04-23T11:56:44.920Z,31.40
2018-04-23T11:59:12.458Z,31.60
2018-04-23T12:01:39.984Z,32.40
2018-04-23T12:04:07.508Z,33.10
2018-04-23T12:06:35.045Z,32.30
2018-04-23T12:09:03.338Z,32.90
2018-04-23T12:11:30.872Z,32.90
2018-04-23T12:13:59.137Z,32.80
2018-04-23T12:16:26.670Z,32.20
2018-04-23T12:18:54.182Z,34.40
2018-04-23T12:21:22.469Z,33.90
2018-04-23T12:23:50.756Z,34.40
2018-04-23T12:26:19.023Z,34.50
2018-04-23T12:28:47.319Z,35.10
2018-04-23T12:31:15.604Z,36.70
2018-04-23T12:33:43.121Z,36.60
2018-04-23T12:36:10.648Z,36.40
2018-04-23T12:38:38.160Z,39.60
2018-04-23T12:41:05.697Z,46.20
2018-04-23T12:43:33.215Z,52.40
2018-04-23T12:46:01.542Z,59.00
2018-04-23T12:48:29.057Z,59.00
2018-04-23T12:50:57.366Z,61.60
2018-04-23T12:53:24.899Z,61.50
2018-04-23T12:55:53.173Z,60.00
2018-04-23T12:58:20.696Z,60.00
2018-04-23T13:00:48.212Z,61.70
2018-04-23T13:03:16.519Z,60.70
2018-04-23T13:05:44.036Z,60.60
2018-04-23T13:08:11.560Z,62.80
2018-04-23T13:10:39.852Z,63.80
2018-04-23T13:13:07.381Z,63.70
2018-04-23T13:15:34.914Z,63.70
2018-04-23T13:18:02.427Z,60.60
2018-04-23T13:20:29.961Z,61.60
2018-04-23T13:22:58.236Z,62.00
2018-04-23T13:25:26.534Z,61.10
2018-04-23T13:27:54.065Z,61.10
2018-04-23T13:30:21.582Z,60.80
2018-04-23T13:32:49.100Z,57.10
2018-04-23T13:35:16.659Z,56.90
2018-04-23T13:37:44.210Z,58.60
2018-04-23T13:40:12.469Z,61.00
2018-04-23T13:42:40.040Z,61.10
2018-04-23T13:45:07.537Z,58.10
2018-04-23T13:47:35.095Z,61.20
2018-04-23T13:50:02.614Z,59.10
2018-04-23T13:52:30.129Z,61.50
2018-04-23T13:54:57.660Z,54.50
2018-04-23T13:57:25.181Z,54.10
2018-04-23T13:59:52.707Z,52.00
2018-04-23T14:02:20.219Z,51.30
2018-04-23T14:04:47.757Z,51.40
2018-04-23T14:07:16.052Z,52.60
2018-04-23T14:09:43.570Z,52.60
2018-04-23T14:12:11.127Z,52.80
2018-04-23T14:14:38.676Z,52.80
2018-04-23T14:17:06.183Z,50.60
2018-04-23T14:19:34.460Z,50.30
2018-04-23T14:22:01.997Z,50.30
2018-04-23T14:24:29.515Z,50.20
2018-04-23T14:26:57.783Z,51.10
2018-04-23T14:29:26.093Z,48.90
2018-04-23T14:31:53.608Z,48.90
2018-04-23T14:34:21.139Z,49.10
2018-04-23T14:36:48.669Z,45.90
2018-04-23T14:39:16.193Z,47.10
2018-04-23T14:41:43.707Z,43.50
2018-04-23T14:44:11.245Z,45.30
2018-04-23T14:46:39.517Z,43.50
2018-04-23T14:49:07.021Z,43.40
2018-04-23T14:51:34.555Z,43.60
2018-04-23T14:54:02.831Z,40.80
2018-04-23T14:56:31.134Z,42.20
2018-04-23T14:58:58.623Z,42.20
2018-04-23T15:01:26.186Z,42.80
2018-04-23T15:03:53.724Z,42.30
2018-04-23T15:06:21.270Z,42.70
2018-04-23T15:08:49.591Z,43.30
2018-04-23T15:11:17.112Z,43.20
2018-04-23T15:13:45.415Z,43.40
2018-04-23T15:16:12.926Z,43.20
2018-04-23T15:18:40.446Z,43.50
2018-04-23T15:21:07.979Z,43.50
2018-04-23T15:23:36.270Z,43.00
2018-04-23T15:26:04.589Z,45.00
2018-04-23T15:28:32.111Z,45.00
2018-04-23T15:31:00.385Z,47.90
2018-04-23T15:33:28.689Z,50.00
2018-04-23T15:35:56.256Z,49.90
2018-04-23T15:38:24.528Z,51.60
2018-04-23T15:40:52.815Z,52.00
2018-04-23T15:43:20.344Z,52.00
2018-04-23T15:45:47.891Z,52.10
2018-04-23T15:48:15.402Z,51.90
2018-04-23T15:50:42.947Z,52.60
2018-04-23T15:53:11.249Z,53.60
2018-04-23T15:55:39.542Z,53.60
2018-04-23T15:58:07.075Z,53.60
2018-04-23T16:00:35.354Z,54.90
2018-04-23T16:03:02.902Z,54.90
2018-04-23T16:05:30.426Z,55.50
2018-04-23T16:07:57.945Z,54.90
2018-04-23T16:10:25.506Z,54.80
2018-04-23T16:12:53.039Z,55.80
2018-04-23T16:15:20.643Z,56.30
2018-04-23T16:17:48.932Z,56.00
2018-04-23T16:20:17.205Z,56.90
2018-04-23T16:22:45.496Z,56.50
2018-04-23T16:25:13.785Z,56.50
2018-04-23T16:27:41.319Z,56.40
2018-04-23T16:30:08.936Z,56.70
2018-04-23T16:32:37.216Z,56.20
2018-04-23T16:35:04.786Z,56.20
2018-04-23T16:37:32.311Z,55.20
2018-04-23T16:40:00.646Z,55.70
2018-04-23T16:42:28.145Z,55.70
2018-04-23T16:44:55.691Z,55.40
2018-04-23T16:47:23.202Z,54.90
2018-04-23T16:49:50.758Z,55.10
2018-04-23T16:52:19.049Z,55.20
2018-04-23T16:54:46.712Z,55.20
2018-04-23T16:57:15.003Z,54.20
2018-04-23T16:59:42.572Z,54.20
2018-04-23T17:02:10.149Z,54.20
2018-04-23T17:04:37.705Z,54.90
2018-04-23T17:07:05.254Z,54.80
2018-04-23T17:09:32.765Z,54.60
2018-04-23T17:12:00.301Z,54.40
2018-04-23T17:14:27.808Z,54.60
2018-04-23T17:16:55.408Z,54.90
2018-04-23T17:19:22.930Z,54.70
2018-04-23T17:21:50.461Z,55.80
2018-04-23T17:24:17.984Z,56.10
2018-04-23T17:26:46.272Z,56.60
2018-04-23T17:29:14.593Z,56.60
2018-04-23T17:31:42.156Z,56.40
2018-04-23T17:34:09.729Z,56.70
2018-04-23T17:36:37.325Z,57.10
2018-04-23T17:39:05.738Z,59.50
2018-04-23T17:41:33.329Z,60.80
2018-04-23T17:44:01.471Z,61.80
2018-04-23T17:46:30.308Z,64.40
2018-04-23T17:48:57.885Z,64.50
2018-04-23T17:51:25.424Z,65.00
2018-04-23T17:53:53.000Z,65.10
2018-04-23T17:56:20.577Z,64.90
2018-04-23T17:58:48.225Z,64.30
2018-04-23T18:01:15.753Z,64.40
2018-04-23T18:03:44.097Z,64.20
2018-04-23T18:06:11.623Z,64.10
2018-04-23T18:08:39.250Z,64.80
2018-04-23T18:11:07.682Z,64.70
2018-04-23T18:13:35.220Z,64.70
2018-04-23T18:16:02.795Z,65.40
2018-04-23T18:18:30.426Z,66.30
2018-04-23T18:20:58.815Z,66.60
2018-04-23T18:23:27.195Z,67.20
2018-04-23T18:25:54.780Z,66.80
2018-04-23T18:28:22.464Z,67.80
2018-04-23T18:30:50.024Z,67.40
2018-04-23T18:33:17.651Z,67.30
2018-04-23T18:35:45.675Z,67.10
2018-04-23T18:38:13.536Z,67.10
2018-04-23T18:40:41.338Z,66.80
2018-04-23T18:43:08.991Z,66.20
2018-04-23T18:45:36.775Z,67.10
2018-04-23T18:48:04.561Z,68.40
2018-04-23T18:50:32.191Z,68.90
2018-04-23T18:53:00.082Z,68.60
2018-04-23T18:55:28.185Z,68.10
2018-04-23T18:57:56.345Z,68.70
2018-04-23T19:00:24.500Z,68.90
2018-04-23T19:02:52.340Z,68.90
2018-04-23T19:05:21.234Z,69.30
2018-04-23T19:07:49.154Z,69.30
2018-04-23T19:10:16.854Z,69.40
2018-04-23T19:12:46.327Z,69.80
2018-04-23T19:15:14.233Z,69.90
2018-04-23T19:17:42.474Z,70.70
2018-04-23T19:20:10.325Z,71.30
2018-04-23T19:22:38.227Z,72.00
2018-04-23T19:25:06.197Z,72.20
2018-04-23T19:27:33.931Z,72.90
2018-04-23T19:30:02.223Z,73.30
2018-04-23T19:32:32.684Z,73.70
2018-04-23T19:35:01.894Z,73.90
2018-04-23T19:37:29.557Z,74.00
2018-04-23T19:39:57.732Z,74.50
2018-04-23T19:42:26.374Z,74.90
2018-04-23T19:44:54.505Z,74.50
2018-04-23T19:47:22.952Z,75.00
2018-04-23T19:49:50.886Z,75.00
2018-04-23T19:52:19.419Z,75.30
2018-04-23T19:54:47.101Z,75.30
2018-04-23T19:57:14.725Z,75.40
2018-04-23T19:59:42.649Z,75.40
2018-04-23T20:02:10.233Z,74.80
2018-04-23T20:04:37.855Z,75.30
2018-04-23T20:07:06.335Z,74.70
2018-04-23T20:09:33.981Z,74.80
2018-04-23T20:12:01.611Z,74.80
2018-04-23T20:14:30.090Z,74.40
2018-04-23T20:16:57.718Z,74.30
2018-04-23T20:19:25.323Z,73.60
2018-04-23T20:21:52.935Z,73.70
2018-04-23T20:24:20.482Z,73.40
2018-04-23T20:26:48.776Z,73.70
2018-04-23T20:29:17.735Z,73.90
2018-04-23T20:31:45.356Z,73.80
2018-04-23T20:34:12.935Z,74.10
2018-04-23T20:36:40.509Z,74.80
2018-04-23T20:39:08.095Z,72.70
2018-04-23T20:41:35.673Z,72.80
2018-04-23T20:44:04.023Z,72.40
2018-04-23T20:46:31.574Z,72.40
2018-04-23T20:48:59.083Z,72.40
2018-04-23T20:51:26.617Z,71.80
2018-04-23T20:53:54.160Z,71.90
2018-04-23T20:56:21.732Z,71.50
2018-04-23T20:58:49.255Z,70.30
2018-04-23T21:01:17.672Z,70.30
2018-04-23T21:03:45.215Z,70.30
2018-04-23T21:06:13.537Z,72.00
2018-04-23T21:08:41.058Z,72.00
2018-04-23T21:11:09.351Z,73.40
2018-04-23T21:13:36.909Z,73.30
2018-04-23T21:16:04.493Z,73.70
2018-04-23T21:18:32.053Z,74.60
2018-04-23T21:20:59.571Z,75.00
2018-04-23T21:23:27.150Z,74.50
2018-04-23T21:25:55.447Z,75.10
2018-04-23T21:28:23.028Z,75.10
2018-04-23T21:30:50.556Z,74.80
2018-04-23T21:33:18.948Z,74.80
2018-04-23T21:35:47.240Z,74.20
2018-04-23T21:38:15.541Z,74.20
2018-04-23T21:40:43.063Z,74.10
2018-04-23T21:43:10.592Z,74.40
2018-04-23T21:45:38.112Z,75.00
2018-04-23T21:48:06.392Z,74.90
2018-04-23T21:50:34.702Z,74.70
2018-04-23T21:53:02.249Z,74.70
2018-04-23T21:55:29.820Z,74.60
2018-04-23T21:57:57.355Z,74.70
2018-04-23T22:00:25.623Z,75.30
2018-04-23T22:02:53.169Z,75.30
2018-04-23T22:05:20.731Z,75.30
2018-04-23T22:07:48.232Z,75.50
2018-04-23T22:10:16.510Z,76.10
2018-04-23T22:12:44.808Z,75.80
2018-04-23T22:15:12.404Z,75.80
2018-04-23T22:17:39.912Z,76.20
2018-04-23T22:20:08.205Z,76.40
2018-04-23T22:22:36.493Z,76.50
2018-04-23T22:25:04.787Z,76.70
2018-04-23T22:27:32.313Z,76.70
2018-04-23T22:29:59.840Z,76.80
2018-04-23T22:32:27.373Z,77.10
2018-04-23T22:34:54.894Z,77.20
2018-04-23T22:37:22.424Z,77.40
2018-04-23T22:39:49.941Z,77.60
2018-04-23T22:42:18.215Z,78.00
2018-04-23T22:44:46.529Z,78.80
2018-04-23T22:47:14.037Z,78.20
2018-04-23T22:49:41.566Z,77.90
2018-04-23T22:52:09.082Z,77.90
2018-04-23T22:54:36.608Z,78.20
2018-04-23T22:57:04.117Z,78.10
2018-04-23T22:59:32.412Z,78.40
2018-04-23T23:02:00.695Z,78.70
2018-04-23T23:04:28.975Z,78.40
2018-04-23T23:06:57.271Z,78.30
2018-04-23T23:09:24.798Z,78.30
2018-04-23T23:11:53.839Z,78.60
2018-04-23T23:14:21.339Z,78.60
2018-04-23T23:16:48.868Z,79.40
2018-04-23T23:19:16.391Z,80.00
2018-04-23T23:21:44.703Z,79.80
2018-04-23T23:24:12.222Z,79.80
2018-04-23T23:26:40.519Z,80.90
2018-04-23T23:29:08.042Z,81.00
2018-04-23T23:31:35.550Z,81.30
2018-04-23T23:34:03.846Z,82.50
2018-04-23T23:36:32.136Z,83.10
2018-04-23T23:38:59.669Z,83.00
2018-04-23T23:41:27.185Z,83.50
2018-04-23T23:43:54.727Z,84.70
2018-04-23T23:46:22.997Z,84.20
2018-04-23T23:48:51.279Z,84.60
2018-04-23T23:51:19.566Z,83.90
2018-04-23T23:53:47.147Z,83.90
2018-04-23T23:56:14.675Z,84.70
2018-04-23T23:58:43.005Z,84.70
